createdAt,value
2019-02-21T00:00:59.294Z,29.57
2019-02-21T00:02:14.162Z,32.60
2019-02-21T00:03:30.224Z,27.25
2019-02-21T00:04:43.445Z,26.42
2019-02-21T00:05:56.694Z,28.25
2019-02-21T00:07:09.914Z,31.17
2019-02-21T00:08:24.778Z,31.05
2019-02-21T00:09:38.007Z,27.42
2019-02-21T00:10:52.585Z,32.45
2019-02-21T00:12:05.821Z,27.17
2019-02-21T00:13:19.037Z,30.23
2019-02-21T00:14:32.273Z,26.05
2019-02-21T00:15:45.502Z,31.17
2019-02-21T00:16:58.740Z,26.68
2019-02-21T00:18:11.961Z,28.52
2019-02-21T00:19:25.204Z,30.20
2019-02-21T00:20:38.438Z,28.60
2019-02-21T00:21:51.669Z,28.35
2019-02-21T00:23:05.081Z,29.55
2019-02-21T00:24:18.322Z,28.83
2019-02-21T00:25:32.429Z,28.57
2019-02-21T00:26:45.666Z,26.07
2019-02-21T00:27:58.893Z,27.77
2019-02-21T00:29:13.026Z,30.68
2019-02-21T00:30:34.851Z,24.70
2019-02-21T00:31:41.194Z,31.87
2019-02-21T00:32:54.427Z,27.05
2019-02-21T00:34:07.662Z,26.48
2019-02-21T00:35:20.899Z,28.15
2019-02-21T00:36:34.134Z,27.50
2019-02-21T00:37:47.389Z,30.02
2019-02-21T00:39:06.401Z,29.77
2019-02-21T00:40:19.628Z,32.93
2019-02-21T00:41:32.875Z,29.25
2019-02-21T00:42:46.102Z,30.90
2019-02-21T00:43:59.701Z,26.12
2019-02-21T00:45:12.934Z,27.98
2019-02-21T00:46:26.163Z,27.87
2019-02-21T00:47:39.393Z,27.35
2019-02-21T00:48:52.626Z,26.07
2019-02-21T00:50:05.926Z,26.07
2019-02-21T00:51:19.169Z,26.30
2019-02-21T00:52:32.397Z,28.15
2019-02-21T00:53:45.623Z,25.00
2019-02-21T00:54:58.859Z,27.75
2019-02-21T00:56:12.999Z,33.65
2019-02-21T00:57:26.213Z,30.43
2019-02-21T00:58:39.518Z,31.62
2019-02-21T00:59:52.745Z,24.50
2019-02-21T01:01:05.974Z,26.37
2019-02-21T01:02:19.206Z,29.10
2019-02-21T01:03:32.435Z,25.70
2019-02-21T01:04:45.668Z,30.37
2019-02-21T01:06:01.110Z,30.48
2019-02-21T01:07:14.346Z,28.00
2019-02-21T01:08:27.614Z,28.00
2019-02-21T01:09:40.845Z,27.30
2019-02-21T01:10:54.086Z,27.50
2019-02-21T01:12:07.322Z,30.55
2019-02-21T01:13:20.548Z,28.17
2019-02-21T01:14:33.777Z,28.55
2019-02-21T01:15:47.020Z,26.37
2019-02-21T01:17:01.163Z,25.57
2019-02-21T01:18:14.385Z,29.48
2019-02-21T01:19:28.502Z,29.70
2019-02-21T01:20:41.726Z,29.95
2019-02-21T01:21:55.866Z,26.52
2019-02-21T01:23:09.093Z,32.35
2019-02-21T01:24:22.318Z,27.80
2019-02-21T01:25:35.554Z,28.40
2019-02-21T01:26:48.849Z,25.92
2019-02-21T01:28:02.106Z,30.05
2019-02-21T01:29:15.408Z,27.35
2019-02-21T01:30:28.643Z,32.03
2019-02-21T01:31:41.873Z,30.37
2019-02-21T01:32:55.128Z,25.45
2019-02-21T01:34:08.342Z,26.48
2019-02-21T01:35:21.571Z,25.60
2019-02-21T01:36:34.814Z,25.55
2019-02-21T01:37:48.057Z,31.12
2019-02-21T01:39:01.285Z,27.20
2019-02-21T01:40:14.741Z,28.45
2019-02-21T01:41:28.854Z,28.02
2019-02-21T01:42:42.098Z,31.05
2019-02-21T01:43:55.322Z,35.73
2019-02-21T01:45:09.235Z,29.87
2019-02-21T01:46:22.459Z,27.30
2019-02-21T01:47:35.694Z,28.55
2019-02-21T01:48:48.926Z,27.10
2019-02-21T01:50:02.152Z,26.35
2019-02-21T01:51:15.385Z,32.48
2019-02-21T01:52:28.606Z,33.53
2019-02-21T01:53:41.834Z,26.40
2019-02-21T01:54:55.067Z,29.55
2019-02-21T01:56:08.296Z,28.95
2019-02-21T01:57:21.538Z,29.40
2019-02-21T01:58:34.778Z,30.65
2019-02-21T01:59:48.014Z,32.28
2019-02-21T02:01:08.470Z,29.12
2019-02-21T02:02:16.201Z,31.75
2019-02-21T02:03:29.506Z,27.32
2019-02-21T02:04:42.729Z,27.30
2019-02-21T02:05:55.961Z,27.05
2019-02-21T02:07:09.190Z,25.43
2019-02-21T02:08:22.425Z,28.30
2019-02-21T02:09:35.657Z,28.73
2019-02-21T02:10:48.890Z,28.70
2019-02-21T02:12:02.200Z,30.82
2019-02-21T02:13:24.031Z,31.02
2019-02-21T02:14:30.382Z,26.30
2019-02-21T02:15:43.618Z,29.98
2019-02-21T02:16:56.845Z,29.00
2019-02-21T02:18:10.079Z,31.30
2019-02-21T02:19:24.937Z,31.45
2019-02-21T02:20:38.258Z,26.95
2019-02-21T02:21:51.480Z,26.62
2019-02-21T02:23:04.722Z,31.27
2019-02-21T02:24:17.957Z,31.23
2019-02-21T02:25:31.190Z,27.45
2019-02-21T02:26:44.414Z,28.75
2019-02-21T02:27:57.656Z,25.48
2019-02-21T02:29:13.562Z,30.50
2019-02-21T02:30:26.793Z,27.52
2019-02-21T02:31:40.022Z,28.52
2019-02-21T02:32:53.276Z,26.33
2019-02-21T02:34:06.504Z,28.52
2019-02-21T02:35:19.725Z,29.42
2019-02-21T02:36:33.859Z,28.47
2019-02-21T02:37:47.098Z,27.80
2019-02-21T02:39:00.344Z,35.03
2019-02-21T02:40:13.578Z,27.02
2019-02-21T02:41:28.082Z,28.20
2019-02-21T02:42:41.321Z,27.37
2019-02-21T02:43:54.569Z,27.82
2019-02-21T02:45:07.795Z,26.33
2019-02-21T02:46:21.022Z,28.10
2019-02-21T02:47:34.325Z,30.45
2019-02-21T02:48:47.566Z,29.40
2019-02-21T02:50:00.822Z,31.75
2019-02-21T02:51:14.038Z,30.32
2019-02-21T02:52:27.286Z,25.35
2019-02-21T02:53:40.526Z,28.80
2019-02-21T02:54:54.825Z,31.48
2019-02-21T02:56:08.075Z,25.90
2019-02-21T02:57:21.298Z,32.00
2019-02-21T02:58:34.523Z,29.15
2019-02-21T02:59:47.764Z,25.23
2019-02-21T03:01:01.009Z,25.90
2019-02-21T03:02:14.249Z,27.05
2019-02-21T03:03:27.486Z,27.52
2019-02-21T03:04:40.742Z,28.70
2019-02-21T03:05:54.034Z,28.55
2019-02-21T03:07:07.335Z,27.80
2019-02-21T03:08:20.589Z,28.65
2019-02-21T03:09:33.821Z,29.65
2019-02-21T03:10:47.058Z,25.65
2019-02-21T03:12:00.286Z,30.43
2019-02-21T03:13:13.540Z,30.17
2019-02-21T03:14:28.394Z,23.35
2019-02-21T03:15:41.652Z,26.82
2019-02-21T03:16:54.938Z,24.47
2019-02-21T03:18:08.179Z,30.68
2019-02-21T03:19:21.421Z,26.87
2019-02-21T03:20:34.651Z,28.32
2019-02-21T03:21:47.883Z,26.52
2019-02-21T03:23:01.137Z,27.98
2019-02-21T03:24:14.400Z,32.58
2019-02-21T03:25:27.695Z,32.10
2019-02-21T03:26:40.937Z,29.20
2019-02-21T03:27:54.172Z,32.33
2019-02-21T03:29:07.406Z,23.35
2019-02-21T03:30:20.626Z,27.15
2019-02-21T03:31:33.869Z,24.32
2019-02-21T03:32:47.115Z,26.97
2019-02-21T03:34:00.355Z,24.23
2019-02-21T03:35:13.598Z,26.90
2019-02-21T03:36:26.818Z,26.97
2019-02-21T03:37:40.053Z,26.82
2019-02-21T03:38:55.610Z,22.50
2019-02-21T03:40:09.602Z,28.98
2019-02-21T03:41:22.923Z,24.40
2019-02-21T03:42:36.150Z,26.12
2019-02-21T03:43:49.382Z,28.07
2019-02-21T03:45:07.148Z,28.57
2019-02-21T03:46:20.393Z,29.48
2019-02-21T03:47:34.697Z,28.02
2019-02-21T03:48:47.932Z,32.42
2019-02-21T03:50:01.221Z,28.32
2019-02-21T03:51:14.472Z,26.17
2019-02-21T03:52:27.714Z,24.85
2019-02-21T03:53:40.950Z,25.57
2019-02-21T03:54:54.176Z,24.25
2019-02-21T03:56:07.398Z,28.23
2019-02-21T03:57:20.627Z,30.00
2019-02-21T03:58:33.877Z,28.42
2019-02-21T03:59:47.130Z,27.77
2019-02-21T04:01:00.366Z,26.05
2019-02-21T04:02:13.839Z,28.60
2019-02-21T04:03:27.061Z,28.95
2019-02-21T04:04:40.314Z,29.40
2019-02-21T04:05:53.568Z,24.50
2019-02-21T04:07:06.810Z,26.68
2019-02-21T04:08:20.042Z,29.77
2019-02-21T04:09:33.295Z,31.85
2019-02-21T04:10:52.435Z,32.60
2019-02-21T04:12:05.666Z,28.27
2019-02-21T04:13:18.899Z,28.90
2019-02-21T04:14:32.194Z,31.25
2019-02-21T04:15:45.439Z,25.62
2019-02-21T04:16:58.674Z,26.17
2019-02-21T04:18:11.896Z,32.33
2019-02-21T04:19:31.021Z,29.70
2019-02-21T04:20:44.320Z,27.27
2019-02-21T04:21:57.676Z,33.23
2019-02-21T04:23:10.907Z,31.42
2019-02-21T04:24:24.137Z,30.55
2019-02-21T04:25:37.365Z,25.12
2019-02-21T04:26:50.601Z,29.35
2019-02-21T04:28:03.893Z,27.55
2019-02-21T04:29:17.133Z,26.87
2019-02-21T04:30:32.907Z,28.90
2019-02-21T04:31:46.185Z,27.05
2019-02-21T04:32:59.424Z,26.35
2019-02-21T04:34:12.657Z,25.40
2019-02-21T04:35:25.948Z,25.97
2019-02-21T04:36:39.185Z,30.30
2019-02-21T04:37:52.423Z,31.75
2019-02-21T04:39:05.838Z,25.45
2019-02-21T04:40:19.112Z,28.87
2019-02-21T04:41:32.401Z,31.30
2019-02-21T04:42:45.626Z,25.95
2019-02-21T04:43:58.855Z,27.07
2019-02-21T04:45:12.370Z,26.17
2019-02-21T04:46:25.607Z,24.98
2019-02-21T04:47:38.826Z,30.62
2019-02-21T04:48:52.067Z,29.65
2019-02-21T04:50:07.844Z,26.42
2019-02-21T04:51:21.153Z,30.65
2019-02-21T04:52:34.378Z,24.92
2019-02-21T04:53:47.670Z,26.65
2019-02-21T04:55:01.006Z,27.75
2019-02-21T04:56:15.025Z,25.85
2019-02-21T04:57:28.298Z,27.80
2019-02-21T04:58:41.569Z,27.50
2019-02-21T04:59:54.800Z,29.23
2019-02-21T05:01:08.085Z,25.35
2019-02-21T05:02:28.916Z,30.10
2019-02-21T05:03:36.298Z,32.78
2019-02-21T05:04:49.549Z,27.85
2019-02-21T05:06:02.778Z,29.50
2019-02-21T05:07:16.009Z,29.32
2019-02-21T05:08:29.242Z,32.50
2019-02-21T05:09:42.486Z,28.90
2019-02-21T05:10:55.731Z,27.77
2019-02-21T05:12:08.956Z,28.95
2019-02-21T05:13:22.194Z,30.45
2019-02-21T05:14:35.430Z,24.98
2019-02-21T05:15:48.688Z,23.07
2019-02-21T05:17:01.923Z,27.67
2019-02-21T05:18:15.464Z,29.82
2019-02-21T05:19:28.690Z,27.80
2019-02-21T05:20:41.922Z,23.73
2019-02-21T05:21:55.157Z,25.55
2019-02-21T05:23:08.386Z,27.27
2019-02-21T05:24:21.610Z,23.65
2019-02-21T05:25:34.832Z,26.17
2019-02-21T05:26:52.359Z,31.85
2019-02-21T05:28:22.027Z,30.20
2019-02-21T05:29:35.253Z,26.15
2019-02-21T05:30:50.124Z,25.02
2019-02-21T05:32:05.057Z,27.50
2019-02-21T05:33:36.401Z,23.75
2019-02-21T05:34:54.207Z,28.40
2019-02-21T05:36:26.873Z,25.75
2019-02-21T05:37:42.836Z,27.05
2019-02-21T05:39:00.677Z,24.80
2019-02-21T05:40:18.458Z,31.25
2019-02-21T05:41:33.339Z,24.47
2019-02-21T05:42:54.097Z,30.65
2019-02-21T05:44:09.044Z,27.98
2019-02-21T05:45:29.657Z,25.37
2019-02-21T05:46:53.385Z,23.83
2019-02-21T05:48:17.431Z,24.05
2019-02-21T05:49:48.714Z,30.27
2019-02-21T05:51:09.497Z,26.70
2019-02-21T05:52:27.074Z,24.18
2019-02-21T05:53:45.219Z,28.87
2019-02-21T05:55:01.002Z,24.72
2019-02-21T05:56:21.945Z,32.08
2019-02-21T05:57:51.750Z,31.80
2019-02-21T05:59:15.547Z,22.85
2019-02-21T06:00:30.430Z,31.42
2019-02-21T06:01:51.162Z,26.05
2019-02-21T06:03:17.991Z,29.23
2019-02-21T06:04:35.561Z,24.32
2019-02-21T06:05:57.343Z,24.87
2019-02-21T06:07:13.165Z,26.15
2019-02-21T06:08:33.858Z,30.70
2019-02-21T06:09:48.834Z,28.52
2019-02-21T06:11:03.745Z,38.58
2019-02-21T06:12:33.155Z,24.15
2019-02-21T06:13:44.686Z,24.25
2019-02-21T06:15:02.447Z,29.67
2019-02-21T06:16:26.078Z,23.38
2019-02-21T06:17:46.702Z,23.42
2019-02-21T06:19:07.315Z,23.42
2019-02-21T06:20:33.986Z,31.12
2019-02-21T06:22:09.734Z,38.92
2019-02-21T06:23:17.259Z,26.73
2019-02-21T06:24:45.908Z,26.57
2019-02-21T06:26:05.969Z,33.30
2019-02-21T06:27:28.031Z,42.23
2019-02-21T06:28:42.903Z,36.00
2019-02-21T06:29:57.776Z,40.08
2019-02-21T06:31:11.069Z,33.45
2019-02-21T06:32:24.306Z,32.50
2019-02-21T06:33:37.544Z,27.02
2019-02-21T06:34:52.445Z,27.07
2019-02-21T06:36:05.781Z,24.67
2019-02-21T06:37:19.027Z,27.42
2019-02-21T06:38:33.632Z,36.25
2019-02-21T06:39:48.421Z,27.15
2019-02-21T06:41:01.654Z,23.38
2019-02-21T06:42:14.882Z,26.50
2019-02-21T06:43:28.127Z,29.42
2019-02-21T06:44:41.350Z,25.95
2019-02-21T06:45:54.591Z,27.35
2019-02-21T06:47:07.817Z,23.42
2019-02-21T06:48:21.043Z,24.07
2019-02-21T06:49:34.283Z,25.55
2019-02-21T06:50:47.792Z,49.00
2019-02-21T06:52:01.125Z,33.28
2019-02-21T06:53:14.353Z,46.68
2019-02-21T06:54:27.598Z,26.70
2019-02-21T06:55:40.830Z,36.33
2019-02-21T06:56:54.057Z,33.92
2019-02-21T06:58:07.287Z,35.48
2019-02-21T06:59:20.540Z,37.75
2019-02-21T07:00:33.766Z,61.65
2019-02-21T07:01:47.008Z,48.35
2019-02-21T07:03:00.241Z,37.10
2019-02-21T07:04:13.453Z,38.00
2019-02-21T07:05:26.694Z,31.10
2019-02-21T07:06:39.929Z,35.30
2019-02-21T07:07:53.159Z,33.98
2019-02-21T07:09:06.382Z,36.45
2019-02-21T07:10:19.633Z,35.80
2019-02-21T07:11:32.864Z,34.43
2019-02-21T07:12:46.094Z,33.35
2019-02-21T07:13:59.336Z,31.35
2019-02-21T07:15:15.055Z,30.75
2019-02-21T07:16:27.750Z,23.62
2019-02-21T07:17:48.746Z,27.05
2019-02-21T07:18:55.917Z,23.52
2019-02-21T07:20:09.145Z,27.27
2019-02-21T07:21:22.409Z,28.75
2019-02-21T07:22:37.271Z,28.15
2019-02-21T07:23:50.490Z,25.52
2019-02-21T07:25:06.397Z,25.35
2019-02-21T07:26:19.700Z,24.63
2019-02-21T07:27:34.588Z,24.05
2019-02-21T07:28:48.278Z,24.80
2019-02-21T07:30:01.515Z,27.82
2019-02-21T07:31:14.742Z,23.15
2019-02-21T07:32:27.982Z,24.20
2019-02-21T07:33:41.205Z,28.80
2019-02-21T07:34:54.442Z,25.50
2019-02-21T07:36:07.675Z,19.65
2019-02-21T07:37:20.902Z,36.90
2019-02-21T07:38:34.126Z,45.15
2019-02-21T07:39:47.349Z,46.30
2019-02-21T07:41:00.608Z,32.00
2019-02-21T07:42:14.021Z,25.77
2019-02-21T07:43:27.287Z,24.87
2019-02-21T07:44:40.557Z,25.88
2019-02-21T07:45:53.795Z,30.35
2019-02-21T07:47:07.038Z,32.13
2019-02-21T07:48:20.275Z,28.60
2019-02-21T07:49:33.508Z,34.35
2019-02-21T07:50:46.737Z,26.17
2019-02-21T07:51:59.965Z,28.62
2019-02-21T07:53:13.206Z,22.40
2019-02-21T07:54:26.437Z,23.07
2019-02-21T07:55:39.663Z,32.00
2019-02-21T07:56:52.885Z,29.67
2019-02-21T07:58:06.142Z,24.75
2019-02-21T07:59:19.363Z,21.02
2019-02-21T08:00:32.593Z,26.20
2019-02-21T08:01:45.810Z,21.77
2019-02-21T08:02:59.045Z,28.42
2019-02-21T08:04:12.290Z,28.92
2019-02-21T08:05:25.526Z,26.20
2019-02-21T08:06:38.756Z,27.32
2019-02-21T08:07:52.014Z,29.07
2019-02-21T08:09:06.480Z,27.98
2019-02-21T08:10:25.768Z,22.98
2019-02-21T08:11:34.666Z,24.85
2019-02-21T08:12:47.894Z,24.32
2019-02-21T08:14:01.139Z,27.15
2019-02-21T08:15:14.362Z,30.08
2019-02-21T08:16:27.593Z,25.77
2019-02-21T08:17:40.834Z,26.42
2019-02-21T08:18:54.062Z,25.08
2019-02-21T08:20:09.847Z,27.20
2019-02-21T08:21:24.718Z,24.23
2019-02-21T08:22:38.012Z,31.93
2019-02-21T08:23:51.283Z,32.48
2019-02-21T08:25:06.730Z,24.85
2019-02-21T08:26:20.299Z,26.50
2019-02-21T08:27:35.266Z,27.67
2019-02-21T08:28:48.665Z,27.15
2019-02-21T08:30:01.902Z,24.15
2019-02-21T08:31:15.202Z,33.45
2019-02-21T08:32:30.175Z,25.90
2019-02-21T08:33:55.452Z,28.55
2019-02-21T08:34:59.989Z,27.10
2019-02-21T08:36:13.228Z,24.25
2019-02-21T08:37:26.461Z,28.30
2019-02-21T08:38:39.687Z,23.92
2019-02-21T08:39:52.926Z,29.87
2019-02-21T08:41:06.150Z,32.33
2019-02-21T08:42:19.391Z,33.08
2019-02-21T08:43:32.635Z,29.12
2019-02-21T08:44:45.873Z,29.98
2019-02-21T08:45:59.110Z,26.52
2019-02-21T08:47:12.356Z,22.17
2019-02-21T08:48:25.594Z,29.05
2019-02-21T08:49:38.810Z,27.20
2019-02-21T08:50:52.054Z,27.75
2019-02-21T08:52:05.293Z,24.15
2019-02-21T08:53:18.526Z,26.85
2019-02-21T08:54:31.762Z,32.85
2019-02-21T08:55:45.008Z,30.75
2019-02-21T08:56:58.253Z,28.07
2019-02-21T08:58:11.483Z,55.28
2019-02-21T08:59:24.722Z,41.58
2019-02-21T09:00:37.951Z,28.92
2019-02-21T09:01:51.178Z,28.67
2019-02-21T09:03:04.430Z,34.98
2019-02-21T09:04:26.702Z,32.40
2019-02-21T09:05:32.609Z,33.85
2019-02-21T09:06:45.841Z,23.30
2019-02-21T09:07:59.078Z,33.18
2019-02-21T09:09:12.311Z,25.05
2019-02-21T09:10:27.599Z,26.30
2019-02-21T09:11:40.478Z,27.22
2019-02-21T09:12:54.301Z,27.67
2019-02-21T09:14:07.527Z,26.97
2019-02-21T09:15:20.763Z,32.03
2019-02-21T09:16:34.000Z,32.88
2019-02-21T09:17:47.225Z,28.25
2019-02-21T09:19:00.471Z,28.73
2019-02-21T09:20:13.689Z,37.78
2019-02-21T09:21:26.922Z,28.52
2019-02-21T09:22:40.157Z,32.42
2019-02-21T09:23:53.394Z,30.05
2019-02-21T09:25:11.460Z,29.65
2019-02-21T09:26:24.682Z,27.15
2019-02-21T09:27:37.922Z,31.93
2019-02-21T09:28:51.158Z,28.42
2019-02-21T09:30:07.097Z,32.83
2019-02-21T09:31:20.327Z,35.58
2019-02-21T09:32:33.561Z,35.20
2019-02-21T09:33:46.787Z,29.10
2019-02-21T09:35:00.034Z,26.07
2019-02-21T09:36:13.265Z,26.90
2019-02-21T09:37:26.506Z,26.45
2019-02-21T09:38:42.767Z,29.63
2019-02-21T09:39:56.010Z,31.07
2019-02-21T09:41:09.243Z,43.05
2019-02-21T09:42:22.546Z,34.70
2019-02-21T09:43:35.777Z,34.50
2019-02-21T09:44:49.820Z,41.95
2019-02-21T09:46:06.614Z,35.33
2019-02-21T09:47:19.849Z,28.95
2019-02-21T09:48:33.169Z,29.02
2019-02-21T09:49:46.397Z,26.68
2019-02-21T09:50:59.621Z,30.75
2019-02-21T09:52:12.882Z,23.55
2019-02-21T09:53:26.118Z,25.30
2019-02-21T09:54:39.356Z,34.00
2019-02-21T09:55:52.600Z,23.90
2019-02-21T09:57:13.201Z,26.15
2019-02-21T09:58:20.786Z,24.50
2019-02-21T09:59:34.034Z,31.05
2019-02-21T10:00:47.262Z,27.40
2019-02-21T10:02:00.499Z,30.08
2019-02-21T10:03:13.742Z,26.52
2019-02-21T10:04:32.076Z,23.00
2019-02-21T10:05:41.945Z,25.68
2019-02-21T10:06:55.654Z,21.65
2019-02-21T10:08:08.888Z,24.00
2019-02-21T10:09:22.134Z,20.12
2019-02-21T10:10:35.368Z,26.52
2019-02-21T10:11:48.594Z,22.73
2019-02-21T10:13:01.830Z,28.40
2019-02-21T10:14:15.965Z,29.70
2019-02-21T10:15:31.403Z,21.60
2019-02-21T10:16:45.063Z,36.40
2019-02-21T10:17:58.290Z,29.92
2019-02-21T10:19:11.524Z,20.77
2019-02-21T10:20:24.798Z,29.55
2019-02-21T10:21:38.013Z,22.10
2019-02-21T10:22:51.276Z,24.30
2019-02-21T10:24:04.553Z,29.55
2019-02-21T10:25:23.625Z,21.50
2019-02-21T10:26:36.907Z,25.97
2019-02-21T10:27:50.146Z,22.48
2019-02-21T10:29:03.377Z,21.65
2019-02-21T10:30:18.659Z,25.48
2019-02-21T10:31:31.906Z,22.85
2019-02-21T10:32:45.131Z,19.32
2019-02-21T10:33:58.367Z,28.52
2019-02-21T10:35:11.593Z,22.77
2019-02-21T10:36:24.850Z,23.85
2019-02-21T10:37:38.090Z,26.02
2019-02-21T10:38:51.325Z,26.97
2019-02-21T10:40:09.813Z,23.40
2019-02-21T10:41:23.053Z,30.82
2019-02-21T10:42:36.303Z,22.05
2019-02-21T10:43:49.529Z,22.30
2019-02-21T10:45:03.528Z,19.92
2019-02-21T10:46:16.872Z,30.65
2019-02-21T10:47:30.190Z,19.98
2019-02-21T10:48:43.440Z,18.45
2019-02-21T10:49:58.642Z,14.53
2019-02-21T10:51:12.107Z,21.07
2019-02-21T10:52:25.345Z,17.48
2019-02-21T10:53:38.585Z,15.13
2019-02-21T10:54:51.826Z,15.00
2019-02-21T10:56:05.287Z,21.15
2019-02-21T10:57:18.542Z,19.75
2019-02-21T10:58:32.674Z,21.17
2019-02-21T10:59:46.975Z,21.73
2019-02-21T11:01:00.426Z,18.95
2019-02-21T11:02:13.653Z,21.25
2019-02-21T11:03:26.901Z,18.00
2019-02-21T11:04:42.117Z,19.85
2019-02-21T11:05:55.090Z,22.37
2019-02-21T11:07:08.326Z,26.90
2019-02-21T11:08:21.569Z,17.82
2019-02-21T11:09:34.805Z,20.90
2019-02-21T11:10:48.042Z,28.02
2019-02-21T11:12:01.277Z,38.45
2019-02-21T11:13:14.527Z,31.48
2019-02-21T11:14:27.766Z,22.85
2019-02-21T11:15:42.154Z,21.00
2019-02-21T11:16:55.503Z,21.17
2019-02-21T11:18:08.730Z,18.37
2019-02-21T11:19:21.986Z,18.35
2019-02-21T11:20:36.400Z,21.27
2019-02-21T11:21:49.648Z,19.55
2019-02-21T11:23:02.889Z,20.32
2019-02-21T11:24:17.015Z,22.15
2019-02-21T11:25:30.245Z,17.32
2019-02-21T11:26:43.493Z,20.12
2019-02-21T11:27:56.723Z,25.40
2019-02-21T11:29:09.958Z,22.02
2019-02-21T11:30:23.215Z,23.02
2019-02-21T11:31:36.437Z,20.05
2019-02-21T11:32:49.670Z,20.27
2019-02-21T11:34:02.898Z,23.98
2019-02-21T11:35:16.132Z,18.37
2019-02-21T11:36:29.366Z,19.60
2019-02-21T11:37:46.589Z,19.37
2019-02-21T11:38:57.734Z,18.95
2019-02-21T11:40:15.311Z,17.52
2019-02-21T11:41:28.565Z,16.67
2019-02-21T11:42:41.791Z,18.07
2019-02-21T11:43:55.034Z,17.75
2019-02-21T11:45:10.735Z,16.10
2019-02-21T11:46:24.015Z,22.70
2019-02-21T11:47:37.327Z,17.48
2019-02-21T11:48:50.574Z,19.35
2019-02-21T11:50:05.747Z,17.37
2019-02-21T11:51:20.606Z,17.60
2019-02-21T11:52:33.838Z,16.35
2019-02-21T11:53:47.062Z,16.32
2019-02-21T11:55:00.421Z,20.68
2019-02-21T11:56:15.681Z,20.32
2019-02-21T11:57:28.706Z,18.37
2019-02-21T11:58:41.960Z,24.50
2019-02-21T11:59:55.183Z,17.60
2019-02-21T12:01:09.264Z,17.60
2019-02-21T12:02:22.490Z,18.12
2019-02-21T12:03:35.806Z,20.17
2019-02-21T12:04:49.043Z,21.97
2019-02-21T12:06:02.267Z,22.48
2019-02-21T12:07:15.497Z,18.23
2019-02-21T12:08:28.986Z,18.67
2019-02-21T12:09:42.218Z,18.00
2019-02-21T12:10:56.354Z,22.70
2019-02-21T12:12:10.431Z,23.32
2019-02-21T12:13:23.815Z,21.33
2019-02-21T12:14:37.042Z,18.15
2019-02-21T12:15:50.274Z,19.20
2019-02-21T12:17:03.790Z,19.57
2019-02-21T12:18:17.009Z,21.02
2019-02-21T12:19:30.274Z,21.87
2019-02-21T12:20:43.503Z,21.95
2019-02-21T12:21:59.276Z,27.60
2019-02-21T12:23:11.693Z,19.23
2019-02-21T12:24:24.938Z,24.60
2019-02-21T12:25:39.801Z,20.25
2019-02-21T12:26:53.043Z,22.60
2019-02-21T12:28:06.278Z,22.90
2019-02-21T12:29:19.517Z,19.25
2019-02-21T12:30:33.493Z,21.10
2019-02-21T12:31:46.865Z,20.60
2019-02-21T12:33:00.099Z,22.45
2019-02-21T12:34:13.338Z,20.02
2019-02-21T12:35:29.506Z,25.77
2019-02-21T12:36:41.521Z,18.40
2019-02-21T12:37:54.753Z,19.85
2019-02-21T12:39:08.487Z,24.82
2019-02-21T12:40:22.663Z,22.70
2019-02-21T12:41:35.909Z,27.27
2019-02-21T12:42:49.193Z,23.55
2019-02-21T12:44:02.441Z,23.45
2019-02-21T12:45:19.961Z,24.00
2019-02-21T12:46:33.204Z,25.90
2019-02-21T12:47:50.974Z,23.00
2019-02-21T12:49:01.373Z,20.60
2019-02-21T12:50:14.642Z,20.68
2019-02-21T12:51:27.865Z,23.10
2019-02-21T12:52:41.101Z,22.77
2019-02-21T12:53:54.335Z,23.30
2019-02-21T12:55:12.006Z,25.12
2019-02-21T12:56:25.271Z,21.60
2019-02-21T12:57:38.493Z,18.77
2019-02-21T12:58:51.737Z,18.98
2019-02-21T13:00:10.637Z,20.43
2019-02-21T13:01:23.879Z,18.75
2019-02-21T13:02:38.757Z,19.73
2019-02-21T13:03:51.995Z,26.02
2019-02-21T13:05:06.066Z,25.70
2019-02-21T13:06:19.313Z,22.70
2019-02-21T13:07:32.546Z,20.75
2019-02-21T13:08:45.810Z,26.62
2019-02-21T13:09:59.033Z,20.00
2019-02-21T13:11:12.286Z,21.65
2019-02-21T13:12:25.539Z,19.42
2019-02-21T13:13:38.764Z,21.55
2019-02-21T13:14:52.053Z,18.25
2019-02-21T13:16:05.303Z,22.02
2019-02-21T13:17:18.536Z,21.15
2019-02-21T13:18:31.762Z,23.20
2019-02-21T13:19:44.997Z,21.60
2019-02-21T13:20:58.243Z,24.80
2019-02-21T13:22:11.486Z,19.95
2019-02-21T13:23:24.725Z,19.80
2019-02-21T13:24:37.945Z,21.75
2019-02-21T13:25:51.177Z,18.60
2019-02-21T13:27:04.419Z,21.87
2019-02-21T13:28:20.151Z,24.05
2019-02-21T13:29:33.375Z,21.52
2019-02-21T13:30:46.606Z,20.92
2019-02-21T13:32:02.563Z,24.27
2019-02-21T13:33:15.809Z,20.50
2019-02-21T13:34:29.044Z,23.62
2019-02-21T13:35:52.190Z,21.48
2019-02-21T13:36:57.466Z,20.17
2019-02-21T13:38:10.716Z,23.35
2019-02-21T13:39:23.945Z,22.82
2019-02-21T13:40:38.388Z,25.02
2019-02-21T13:41:51.602Z,26.17
2019-02-21T13:43:04.845Z,26.85
2019-02-21T13:44:18.073Z,22.50
2019-02-21T13:45:31.305Z,27.48
2019-02-21T13:46:44.544Z,28.05
2019-02-21T13:47:57.829Z,23.18
2019-02-21T13:49:11.065Z,22.95
2019-02-21T13:50:24.294Z,26.80
2019-02-21T13:51:37.517Z,25.35
2019-02-21T13:52:50.753Z,22.02
2019-02-21T13:54:03.995Z,29.92
2019-02-21T13:55:19.198Z,23.85
2019-02-21T13:56:32.185Z,31.17
2019-02-21T13:57:45.417Z,26.95
2019-02-21T13:59:01.371Z,22.60
2019-02-21T14:00:19.638Z,20.97
2019-02-21T14:01:32.874Z,23.02
2019-02-21T14:02:46.113Z,20.12
2019-02-21T14:03:59.357Z,19.00
2019-02-21T14:05:12.601Z,17.27
2019-02-21T14:06:25.835Z,19.65
2019-02-21T14:07:40.685Z,18.73
2019-02-21T14:08:53.928Z,14.75
2019-02-21T14:10:10.267Z,21.07
2019-02-21T14:11:23.960Z,19.02
2019-02-21T14:12:39.422Z,18.67
2019-02-21T14:13:52.151Z,20.37
2019-02-21T14:15:08.825Z,24.90
2019-02-21T14:16:22.070Z,16.40
2019-02-21T14:17:35.298Z,22.35
2019-02-21T14:18:48.530Z,19.52
2019-02-21T14:20:01.765Z,20.48
2019-02-21T14:21:15.010Z,14.65
2019-02-21T14:22:28.270Z,16.87
2019-02-21T14:23:41.531Z,15.38
2019-02-21T14:24:54.767Z,14.78
2019-02-21T14:26:08.010Z,20.62
2019-02-21T14:27:21.249Z,16.67
2019-02-21T14:28:37.308Z,16.57
2019-02-21T14:29:49.429Z,17.62
2019-02-21T14:31:02.658Z,22.17
2019-02-21T14:32:16.912Z,17.67
2019-02-21T14:33:30.137Z,15.68
2019-02-21T14:34:43.373Z,23.85
2019-02-21T14:35:56.595Z,17.02
2019-02-21T14:37:09.916Z,19.30
2019-02-21T14:38:27.775Z,23.80
2019-02-21T14:39:38.174Z,19.90
2019-02-21T14:40:51.409Z,16.20
2019-02-21T14:42:06.270Z,14.13
2019-02-21T14:43:19.572Z,17.35
2019-02-21T14:44:32.822Z,12.80
2019-02-21T14:45:46.046Z,16.95
2019-02-21T14:46:59.286Z,12.28
2019-02-21T14:48:12.516Z,20.12
2019-02-21T14:49:25.855Z,20.55
2019-02-21T14:50:39.151Z,25.27
2019-02-21T14:51:52.385Z,16.73
2019-02-21T14:53:05.644Z,11.63
2019-02-21T14:54:18.870Z,13.48
2019-02-21T14:55:32.097Z,18.40
2019-02-21T14:56:45.328Z,15.93
2019-02-21T14:57:58.566Z,11.57
2019-02-21T14:59:11.819Z,12.03
2019-02-21T15:00:26.690Z,12.37
2019-02-21T15:01:39.927Z,10.18
2019-02-21T15:02:53.155Z,13.28
2019-02-21T15:04:06.396Z,13.18
2019-02-21T15:05:21.251Z,8.00
2019-02-21T15:06:34.483Z,12.75
2019-02-21T15:07:47.721Z,16.42
2019-02-21T15:09:00.945Z,12.45
2019-02-21T15:10:14.261Z,11.75
2019-02-21T15:11:27.502Z,11.03
2019-02-21T15:12:41.631Z,12.00
2019-02-21T15:13:54.850Z,10.90
2019-02-21T15:15:11.128Z,13.55
2019-02-21T15:16:24.370Z,14.05
2019-02-21T15:17:37.598Z,10.82
2019-02-21T15:18:50.850Z,18.20
2019-02-21T15:20:05.928Z,13.25
2019-02-21T15:21:19.163Z,10.28
2019-02-21T15:22:32.401Z,16.02
2019-02-21T15:23:45.630Z,13.85
2019-02-21T15:24:58.862Z,18.98
2019-02-21T15:26:12.102Z,13.22
2019-02-21T15:27:25.334Z,13.88
2019-02-21T15:28:38.563Z,11.15
2019-02-21T15:29:51.795Z,13.50
2019-02-21T15:31:05.018Z,16.70
2019-02-21T15:32:18.261Z,12.65
2019-02-21T15:33:31.498Z,16.48
2019-02-21T15:34:47.146Z,18.20
2019-02-21T15:36:01.315Z,12.55
2019-02-21T15:37:14.538Z,13.58
2019-02-21T15:38:27.769Z,12.03
2019-02-21T15:39:42.907Z,11.63
2019-02-21T15:40:55.960Z,14.58
2019-02-21T15:42:09.187Z,13.45
2019-02-21T15:43:22.421Z,13.80
2019-02-21T15:44:35.643Z,9.53
2019-02-21T15:45:48.879Z,14.43
2019-02-21T15:47:02.114Z,13.32
2019-02-21T15:48:15.354Z,12.80
2019-02-21T15:49:28.578Z,17.07
2019-02-21T15:50:41.818Z,11.28
2019-02-21T15:51:55.056Z,15.35
2019-02-21T15:53:08.305Z,13.55